createdAt,value
2017-01-29T09:48:01.233Z,1128
2017-01-29T09:49:10.945Z,1188
2017-01-29T09:50:20.663Z,1536
2017-01-29T09:51:31.263Z,1628
2017-01-29T09:52:41.860Z,1688
2017-01-29T09:53:52.511Z,1640
2017-01-29T09:55:03.109Z,1580
2017-01-29T09:56:12.829Z,1668
2017-01-29T09:57:22.557Z,1328
2017-01-29T09:58:32.278Z,1584
2017-01-29T09:59:42.056Z,1820
2017-01-29T10:00:51.773Z,1672
2017-01-29T10:02:01.492Z,1608
2017-01-29T10:03:12.084Z,1856
2017-01-29T10:04:21.805Z,2016
2017-01-29T10:05:31.626Z,1936
2017-01-29T10:06:41.337Z,2092
2017-01-29T10:07:51.055Z,2060
2017-01-29T10:09:00.784Z,2088
2017-01-29T10:10:10.941Z,1932
2017-01-29T10:11:20.295Z,1952
2017-01-29T10:12:29.603Z,1984
2017-01-29T10:13:39.330Z,2024
2017-01-29T10:14:48.611Z,1944
2017-01-29T10:15:57.904Z,2224
2017-01-29T10:17:07.240Z,2340
2017-01-29T10:18:16.970Z,2316
2017-01-29T10:19:26.688Z,2212
2017-01-29T10:20:36.435Z,2308
2017-01-29T10:21:45.722Z,2128
2017-01-29T10:22:55.928Z,2104
2017-01-29T10:24:06.097Z,1960
2017-01-29T10:25:15.818Z,1952
2017-01-29T10:26:25.547Z,2072
2017-01-29T10:27:35.701Z,2192
2017-01-29T10:28:45.477Z,2232
2017-01-29T10:29:55.203Z,2184
2017-01-29T10:31:05.798Z,2312
2017-01-29T10:32:15.092Z,2196
2017-01-29T10:33:25.252Z,2420
2017-01-29T10:34:35.022Z,2404
2017-01-29T10:35:44.315Z,2572
2017-01-29T10:36:54.064Z,2596
2017-01-29T10:38:03.781Z,2528
2017-01-29T10:39:13.506Z,2228
2017-01-29T10:40:23.378Z,2248
2017-01-29T10:41:33.533Z,2652
2017-01-29T10:42:42.843Z,2516
2017-01-29T10:43:52.561Z,2724
2017-01-29T10:45:01.857Z,2680
2017-01-29T10:46:12.100Z,2568
2017-01-29T10:47:21.387Z,2740
2017-01-29T10:48:31.548Z,2348
2017-01-29T10:49:41.279Z,2584
2017-01-29T10:50:51.437Z,2648
2017-01-29T10:52:00.816Z,2888
2017-01-29T10:53:10.978Z,2960
2017-01-29T10:54:20.268Z,3128
2017-01-29T10:55:29.601Z,3236
2017-01-29T10:56:39.331Z,3344
2017-01-29T10:57:49.543Z,3384
2017-01-29T10:58:59.732Z,3192
2017-01-29T11:00:10.329Z,3252
2017-01-29T11:01:20.047Z,3324
2017-01-29T11:02:29.774Z,3936
2017-01-29T11:03:40.046Z,3988
2017-01-29T11:04:49.768Z,4004
2017-01-29T11:06:00.139Z,4056
2017-01-29T11:07:09.886Z,3796
2017-01-29T11:08:20.480Z,3620
2017-01-29T11:09:30.252Z,3824
2017-01-29T11:10:40.425Z,3812
2017-01-29T11:11:50.596Z,3424
2017-01-29T11:13:00.349Z,4032
2017-01-29T11:14:10.073Z,4036
2017-01-29T11:15:21.159Z,4200
2017-01-29T11:16:30.450Z,4120
2017-01-29T11:17:40.611Z,4232
2017-01-29T11:18:50.788Z,4520
2017-01-29T11:20:00.508Z,4596
2017-01-29T11:21:09.843Z,4740
2017-01-29T11:22:19.128Z,4704
2017-01-29T11:23:28.851Z,4808
2017-01-29T11:24:38.140Z,4920
2017-01-29T11:25:49.502Z,4776
2017-01-29T11:26:58.843Z,4956
2017-01-29T11:28:08.562Z,4736
2017-01-29T11:29:18.289Z,4996
2017-01-29T11:30:29.287Z,4192
2017-01-29T11:31:42.770Z,5056
2017-01-29T11:32:55.486Z,5428
2017-01-29T11:34:11.051Z,5464
2017-01-29T11:35:24.537Z,5592
2017-01-29T11:36:38.749Z,5532
2017-01-29T11:37:53.752Z,5744
2017-01-29T11:39:08.848Z,5764
2017-01-29T11:40:22.895Z,5788
2017-01-29T11:41:35.146Z,5680
2017-01-29T11:42:50.117Z,5432
2017-01-29T11:44:10.641Z,5372
2017-01-29T11:45:24.791Z,5176
2017-01-29T11:46:38.427Z,4956
2017-01-29T11:47:51.811Z,4572
2017-01-29T11:49:03.704Z,4660
2017-01-29T11:50:15.704Z,4700
2017-01-29T11:51:28.510Z,4408
2017-01-29T11:52:38.969Z,4604
2017-01-29T11:53:48.746Z,4616
2017-01-29T11:54:58.475Z,4540
2017-01-29T11:56:08.186Z,4520
2017-01-29T11:57:17.913Z,4648
2017-01-29T11:58:28.530Z,3552
2017-01-29T11:59:38.750Z,4408
2017-01-29T12:00:48.478Z,4188
2017-01-29T12:01:58.195Z,4164
2017-01-29T12:03:07.920Z,3920
2017-01-29T12:04:17.216Z,3980
2017-01-29T12:05:27.438Z,4208
2017-01-29T12:06:37.604Z,4308
2017-01-29T12:07:47.328Z,4520
2017-01-29T12:08:57.925Z,3996
2017-01-29T12:10:08.119Z,4024
2017-01-29T12:11:24.238Z,3868
2017-01-29T12:12:34.627Z,3664
2017-01-29T12:13:44.346Z,3500
2017-01-29T12:14:54.079Z,3504
2017-01-29T12:16:04.242Z,3796
2017-01-29T12:17:14.692Z,3960
2017-01-29T12:18:24.003Z,3940
2017-01-29T12:19:33.728Z,3784
2017-01-29T12:20:43.450Z,3800
2017-01-29T12:21:52.739Z,3808
2017-01-29T12:23:02.525Z,3488
2017-01-29T12:24:12.252Z,2868
2017-01-29T12:25:21.967Z,2660
2017-01-29T12:26:31.252Z,3268
2017-01-29T12:27:40.977Z,2840
2017-01-29T12:28:51.630Z,3084
2017-01-29T12:30:01.806Z,3216
2017-01-29T12:31:19.344Z,3856
2017-01-29T12:32:31.769Z,3960
2017-01-29T12:33:41.525Z,3896
2017-01-29T12:34:51.732Z,4424
2017-01-29T12:36:01.459Z,4568
2017-01-29T12:37:11.620Z,4164
2017-01-29T12:38:21.355Z,4008
2017-01-29T12:39:30.708Z,3932
2017-01-29T12:40:39.998Z,3012
2017-01-29T12:41:49.718Z,2252
2017-01-29T12:42:59.440Z,2312
2017-01-29T12:44:09.604Z,2424
2017-01-29T12:45:19.374Z,2640
2017-01-29T12:46:28.665Z,2932
2017-01-29T12:47:38.396Z,2872
2017-01-29T12:48:48.121Z,2824
2017-01-29T12:49:57.853Z,2912
2017-01-29T12:51:08.069Z,2920
2017-01-29T12:52:18.229Z,2904
2017-01-29T12:53:27.604Z,3144
2017-01-29T12:54:38.203Z,3040
2017-01-29T12:55:48.360Z,2832
2017-01-29T12:56:58.576Z,2492
2017-01-29T12:58:08.304Z,2096
2017-01-29T12:59:18.035Z,1868
2017-01-29T13:00:27.356Z,1916
2017-01-29T13:01:37.645Z,2256
2017-01-29T13:02:47.056Z,2572
2017-01-29T13:03:56.784Z,2512
2017-01-29T13:05:06.120Z,2404
2017-01-29T13:06:15.409Z,2476
2017-01-29T13:07:24.692Z,2612
2017-01-29T13:08:35.352Z,2880
2017-01-29T13:09:45.115Z,3016
2017-01-29T13:10:55.279Z,2852
2017-01-29T13:12:05.640Z,2788
2017-01-29T13:13:15.890Z,2928
2017-01-29T13:14:26.100Z,3104
2017-01-29T13:15:36.319Z,3320
2017-01-29T13:16:46.092Z,3276
2017-01-29T13:17:55.386Z,3056
2017-01-29T13:19:05.116Z,2728
2017-01-29T13:20:15.303Z,2424
2017-01-29T13:21:24.592Z,2344
2017-01-29T13:22:34.368Z,2524
2017-01-29T13:23:44.537Z,2496
2017-01-29T13:24:54.704Z,2492
2017-01-29T13:26:04.000Z,2472
2017-01-29T13:27:13.729Z,2488
2017-01-29T13:28:23.510Z,2596
2017-01-29T13:29:32.795Z,2680
2017-01-29T13:30:42.966Z,2676
2017-01-29T13:31:53.562Z,2616
2017-01-29T13:33:03.723Z,2676
2017-01-29T13:34:13.927Z,2604
2017-01-29T13:35:24.522Z,2488
2017-01-29T13:36:34.248Z,2464
2017-01-29T13:37:43.541Z,2484
2017-01-29T13:38:53.272Z,2588
2017-01-29T13:40:03.491Z,2620
2017-01-29T13:41:13.317Z,2636
2017-01-29T13:42:23.077Z,2516
2017-01-29T13:43:33.237Z,2352
2017-01-29T13:44:42.529Z,2208
2017-01-29T13:45:51.872Z,2136
2017-01-29T13:47:02.034Z,2008
2017-01-29T13:48:11.783Z,1988
2017-01-29T13:49:21.064Z,1944
2017-01-29T13:50:30.785Z,1968
2017-01-29T13:51:40.117Z,1904
2017-01-29T13:52:50.278Z,1820
2017-01-29T13:54:00.444Z,1856
2017-01-29T13:55:10.609Z,1924
2017-01-29T13:56:20.337Z,1968
2017-01-29T13:57:30.111Z,1956
2017-01-29T13:58:39.861Z,1992
2017-01-29T13:59:50.453Z,1984
2017-01-29T14:00:59.742Z,2016
2017-01-29T14:02:09.469Z,2148
2017-01-29T14:03:20.133Z,2212
2017-01-29T14:04:30.731Z,2244
2017-01-29T14:05:40.023Z,2184
2017-01-29T14:06:49.313Z,2136
2017-01-29T14:07:58.599Z,2120
2017-01-29T14:09:08.830Z,2124
2017-01-29T14:10:18.551Z,2096
2017-01-29T14:11:27.841Z,2008
2017-01-29T14:12:38.007Z,1972
2017-01-29T14:13:47.735Z,1952
2017-01-29T14:14:57.950Z,1984
2017-01-29T14:16:08.115Z,2020
2017-01-29T14:17:18.284Z,1948
2017-01-29T14:18:28.001Z,1856
2017-01-29T14:19:37.726Z,1792
2017-01-29T14:20:47.925Z,1760
2017-01-29T14:21:58.088Z,1720
2017-01-29T14:23:07.384Z,1684
2017-01-29T14:24:17.102Z,1688
2017-01-29T14:25:27.708Z,1644
2017-01-29T14:26:37.480Z,1596
2017-01-29T14:27:46.770Z,1504
2017-01-29T14:28:56.503Z,1404
2017-01-29T14:30:05.787Z,1344
2017-01-29T14:31:15.503Z,1304
2017-01-29T14:32:25.282Z,1304
2017-01-29T14:33:34.575Z,1304
2017-01-29T14:34:44.301Z,1272
2017-01-29T14:35:53.612Z,1316
2017-01-29T14:37:02.899Z,1248
2017-01-29T14:38:12.674Z,1176
2017-01-29T14:39:22.829Z,1168
2017-01-29T14:40:33.430Z,1164
2017-01-29T14:41:43.587Z,1064
2017-01-29T14:42:53.313Z,1036
2017-01-29T14:44:02.653Z,972
2017-01-29T14:45:11.945Z,968
2017-01-29T14:46:21.673Z,980
2017-01-29T14:47:31.393Z,1040
2017-01-29T14:48:41.121Z,1032
2017-01-29T14:49:50.891Z,1160
2017-01-29T14:51:00.616Z,1272
2017-01-29T14:52:10.780Z,1220
2017-01-29T14:53:20.510Z,1188
2017-01-29T14:54:31.108Z,1168
2017-01-29T14:55:41.345Z,1072
2017-01-29T14:56:51.070Z,980
2017-01-29T14:58:00.798Z,996
2017-01-29T14:59:10.952Z,980
2017-01-29T15:00:20.252Z,996
2017-01-29T15:01:29.595Z,964
2017-01-29T15:02:38.881Z,936
2017-01-29T15:03:48.609Z,864
2017-01-29T15:04:57.894Z,796
2017-01-29T15:06:08.491Z,732
2017-01-29T15:07:18.696Z,640
2017-01-29T15:08:27.982Z,568
2017-01-29T15:09:38.146Z,560
2017-01-29T15:10:47.428Z,544
2017-01-29T15:11:58.024Z,556
2017-01-29T15:13:07.793Z,532
2017-01-29T15:14:17.088Z,516
2017-01-29T15:15:27.256Z,548
2017-01-29T15:16:36.982Z,548
2017-01-29T15:17:46.270Z,540
2017-01-29T15:18:55.603Z,552
2017-01-29T15:20:05.328Z,544
2017-01-29T15:21:15.049Z,548
2017-01-29T15:22:24.788Z,528
2017-01-29T15:23:34.943Z,520
2017-01-29T15:24:45.590Z,512
2017-01-29T15:25:54.875Z,488
2017-01-29T15:27:04.171Z,464
2017-01-29T15:28:13.894Z,444
2017-01-29T15:29:24.054Z,432
2017-01-29T15:30:33.388Z,412
2017-01-29T15:31:43.109Z,384
2017-01-29T15:32:52.843Z,384
2017-01-29T15:34:02.135Z,388
2017-01-29T15:35:12.740Z,380
2017-01-29T15:36:22.962Z,368
2017-01-29T15:37:32.694Z,340
2017-01-29T15:38:42.882Z,320
2017-01-29T15:39:52.621Z,304
2017-01-29T15:41:01.915Z,288
2017-01-29T15:42:12.130Z,276
2017-01-29T15:43:22.309Z,264
2017-01-29T15:44:32.038Z,252
2017-01-29T15:45:41.330Z,244
2017-01-29T15:46:51.519Z,232
2017-01-29T15:48:01.841Z,212
2017-01-29T15:49:11.578Z,196
2017-01-29T15:50:22.191Z,184
2017-01-29T15:51:31.949Z,168
2017-01-29T15:52:41.726Z,156
2017-01-29T15:53:51.544Z,140
2017-01-29T15:55:01.741Z,124
2017-01-29T15:56:11.061Z,112
2017-01-29T15:57:20.354Z,100
2017-01-29T15:58:29.691Z,92
2017-01-29T15:59:39.491Z,80
2017-01-29T16:00:49.692Z,76
2017-01-29T16:01:59.879Z,72
2017-01-29T16:03:10.083Z,68
2017-01-29T16:04:20.277Z,64
2017-01-29T16:05:30.107Z,52
2017-01-29T16:06:39.900Z,48
2017-01-29T16:07:49.213Z,44
2017-01-29T16:08:59.843Z,44
2017-01-29T16:10:09.572Z,36
2017-01-29T16:11:19.376Z,36
2017-01-29T16:12:29.546Z,28
2017-01-29T16:13:39.316Z,24
2017-01-29T16:14:48.631Z,20
2017-01-29T16:15:58.369Z,20
2017-01-29T16:17:07.714Z,16
2017-01-29T16:18:17.448Z,12
2017-01-29T16:19:27.186Z,12
2017-01-29T16:20:36.491Z,12
2017-01-29T16:21:45.783Z,8
2017-01-29T16:22:55.581Z,8
2017-01-29T16:24:05.320Z,4
2017-01-29T16:25:15.061Z,4
2017-01-29T16:26:25.222Z,0
2017-01-29T16:27:34.968Z,4
2017-01-29T16:28:46.090Z,4
2017-01-29T16:29:56.284Z,0
2017-01-29T16:31:06.024Z,0
2017-01-29T16:32:15.353Z,0
2017-01-29T16:33:25.542Z,0
2017-01-29T16:34:36.325Z,0
2017-01-29T16:35:46.110Z,0
2017-01-29T16:36:55.460Z,0
2017-01-29T16:38:06.187Z,0
2017-01-29T16:39:16.812Z,0
2017-01-29T16:40:26.595Z,0
2017-01-29T16:41:35.894Z,0
2017-01-29T16:42:45.636Z,0
2017-01-29T16:43:54.929Z,0
2017-01-29T16:45:04.247Z,0
2017-01-29T16:46:14.062Z,0
2017-01-29T16:47:23.364Z,0
2017-01-29T16:48:33.154Z,0
2017-01-29T16:49:42.884Z,0
2017-01-29T16:50:52.648Z,0
2017-01-29T16:52:02.888Z,0
2017-01-29T16:53:13.078Z,0
2017-01-29T16:54:23.273Z,0
2017-01-29T16:55:33.048Z,0
2017-01-29T16:56:43.236Z,0
2017-01-29T16:57:53.058Z,0
2017-01-29T16:59:02.832Z,0
2017-01-29T17:00:13.491Z,0
2017-01-29T17:01:24.152Z,0
2017-01-29T17:02:34.395Z,0
2017-01-29T17:03:45.118Z,0
2017-01-29T17:04:55.292Z,0
2017-01-29T17:06:05.913Z,0
2017-01-29T17:07:15.684Z,0
2017-01-29T17:08:25.467Z,0
2017-01-29T17:09:34.840Z,0
2017-01-29T17:10:44.170Z,0
2017-01-29T17:11:53.996Z,0
2017-01-29T17:13:03.748Z,0
2017-01-29T17:14:13.041Z,0
2017-01-29T17:15:22.409Z,0
2017-01-29T17:16:32.604Z,0
2017-01-29T17:17:42.841Z,0
2017-01-29T17:18:52.588Z,0
2017-01-29T17:20:03.207Z,0
2017-01-29T17:21:12.559Z,0
2017-01-29T17:22:22.304Z,0
2017-01-29T17:23:32.466Z,0
2017-01-29T17:24:43.099Z,0
2017-01-29T17:25:52.832Z,0
2017-01-29T17:27:02.199Z,0
2017-01-29T17:28:12.375Z,0
2017-01-29T17:29:21.700Z,0
2017-01-29T17:30:31.445Z,0
2017-01-29T17:31:40.768Z,0
2017-01-29T17:32:50.128Z,0
2017-01-29T17:33:59.943Z,0
2017-01-29T17:35:09.706Z,0
2017-01-29T17:36:20.352Z,0
2017-01-29T17:37:30.127Z,0
2017-01-29T17:38:40.881Z,0
2017-01-29T17:39:51.611Z,0
2017-01-29T17:41:01.343Z,0
2017-01-29T17:42:11.954Z,0
2017-01-29T17:43:21.699Z,0
2017-01-29T17:44:31.192Z,0
2017-01-29T17:45:41.901Z,0
2017-01-29T17:46:52.122Z,0
2017-01-29T17:48:02.858Z,0
2017-01-29T17:49:13.123Z,0
2017-01-29T17:50:22.946Z,0
2017-01-29T17:51:33.642Z,0
2017-01-29T17:52:43.926Z,0
2017-01-29T17:53:54.173Z,0
2017-01-29T17:55:03.988Z,0
2017-01-29T17:56:14.784Z,0
2017-01-29T17:57:24.165Z,0
2017-01-29T17:58:34.072Z,0
2017-01-29T17:59:43.864Z,0
2017-01-29T18:00:53.680Z,0
2017-01-29T18:02:03.950Z,0
2017-01-29T18:03:14.785Z,0
2017-01-29T18:04:24.619Z,0
2017-01-29T18:05:35.799Z,0
2017-01-29T18:06:45.667Z,0
2017-01-29T18:07:55.526Z,0
2017-01-29T18:09:05.386Z,0
2017-01-29T18:10:15.638Z,0
2017-01-29T18:11:24.962Z,0
2017-01-29T18:12:34.758Z,0
2017-01-29T18:13:44.569Z,0
2017-01-29T18:14:54.840Z,0
2017-01-29T18:16:05.073Z,0
2017-01-29T18:17:15.755Z,0
2017-01-29T18:18:26.916Z,0
2017-01-29T18:19:36.335Z,0
2017-01-29T18:20:46.137Z,0
2017-01-29T18:21:55.968Z,0
2017-01-29T18:23:06.235Z,0
2017-01-29T18:24:15.988Z,0
2017-01-29T18:25:26.268Z,0
2017-01-29T18:26:36.946Z,0
2017-01-29T18:27:48.123Z,0
2017-01-29T18:28:57.418Z,0
2017-01-29T18:30:07.716Z,0
2017-01-29T18:31:17.557Z,0
2017-01-29T18:32:27.917Z,0
2017-01-29T18:33:37.743Z,0
2017-01-29T18:34:48.604Z,0
2017-01-29T18:35:58.458Z,0
2017-01-29T18:37:08.598Z,0
2017-01-29T18:38:19.069Z,0
2017-01-29T18:39:29.589Z,0
2017-01-29T18:40:40.578Z,0
2017-01-29T18:41:50.513Z,0
2017-01-29T18:43:01.156Z,0
2017-01-29T18:44:12.460Z,0
2017-01-29T18:45:23.772Z,0
2017-01-29T18:46:33.794Z,0
2017-01-29T18:47:44.365Z,0
2017-01-29T18:48:54.904Z,0
2017-01-29T18:50:05.701Z,0
2017-01-29T18:51:16.729Z,0
2017-01-29T18:52:27.211Z,0
2017-01-29T18:53:37.736Z,0
2017-01-29T18:54:47.209Z,0
2017-01-29T18:55:57.690Z,0
2017-01-29T18:57:08.062Z,0
2017-01-29T18:58:19.413Z,0
2017-01-29T18:59:29.404Z,0
2017-01-29T19:00:40.253Z,0
2017-01-29T19:01:51.157Z,0
2017-01-29T19:03:01.252Z,0
2017-01-29T19:04:11.409Z,0
2017-01-29T19:05:21.526Z,0
2017-01-29T19:06:32.443Z,0
2017-01-29T19:07:42.956Z,0
2017-01-29T19:08:54.825Z,0
2017-01-29T19:10:04.864Z,0
2017-01-29T19:11:15.456Z,0
2017-01-29T19:12:26.588Z,0
2017-01-29T19:13:37.912Z,0
2017-01-29T19:14:47.845Z,0
2017-01-29T19:15:57.813Z,0
2017-01-29T19:17:07.773Z,0
2017-01-29T19:18:18.800Z,0
2017-01-29T19:19:29.121Z,0
2017-01-29T19:20:40.085Z,0
2017-01-29T19:21:50.098Z,0
2017-01-29T19:23:01.392Z,0
2017-01-29T19:24:11.529Z,0
2017-01-29T19:25:21.112Z,0
2017-01-29T19:26:32.176Z,0
2017-01-29T19:27:43.164Z,0
2017-01-29T19:28:53.137Z,0
2017-01-29T19:30:03.830Z,0
2017-01-29T19:31:15.311Z,0
2017-01-29T19:32:25.710Z,0
2017-01-29T19:33:36.070Z,0
2017-01-29T19:34:45.859Z,0
2017-01-29T19:35:55.684Z,0
2017-01-29T19:37:06.294Z,0
2017-01-29T19:38:16.465Z,0
2017-01-29T19:39:27.080Z,0
2017-01-29T19:40:36.835Z,0
2017-01-29T19:41:46.639Z,0
2017-01-29T19:42:56.381Z,0
2017-01-29T19:44:05.668Z,0
2017-01-29T19:45:15.830Z,0
2017-01-29T19:46:26.022Z,0
2017-01-29T19:47:36.697Z,0
2017-01-29T19:48:46.855Z,0
2017-01-29T19:49:56.143Z,0
2017-01-29T19:51:05.427Z,0
2017-01-29T19:52:15.606Z,0
2017-01-29T19:53:24.947Z,0
2017-01-29T19:54:34.662Z,0
2017-01-29T19:55:44.402Z,0
2017-01-29T19:56:53.687Z,0
2017-01-29T19:58:02.982Z,0
2017-01-29T19:59:12.318Z,0
2017-01-29T20:00:22.506Z,0
2017-01-29T20:01:33.116Z,0
2017-01-29T20:02:43.276Z,0
2017-01-29T20:03:53.438Z,0
2017-01-29T20:05:03.659Z,0
2017-01-29T20:06:13.379Z,0
2017-01-29T20:07:23.541Z,0
2017-01-29T20:08:33.268Z,0
2017-01-29T20:09:42.988Z,0
2017-01-29T20:10:53.208Z,0
2017-01-29T20:12:02.930Z,0
2017-01-29T20:13:12.219Z,0
2017-01-29T20:14:21.941Z,0
2017-01-29T20:15:31.220Z,0
2017-01-29T20:16:41.426Z,0
2017-01-29T20:17:50.712Z,0
2017-01-29T20:19:00.019Z,0
2017-01-29T20:20:10.622Z,0
2017-01-29T20:21:19.902Z,0
2017-01-29T20:22:30.116Z,0
2017-01-29T20:23:39.402Z,0
2017-01-29T20:24:48.690Z,0
2017-01-29T20:25:58.419Z,0
2017-01-29T20:27:08.150Z,0
2017-01-29T20:28:17.494Z,0
2017-01-29T20:29:27.218Z,0
2017-01-29T20:30:36.944Z,0
2017-01-29T20:31:47.106Z,0
2017-01-29T20:32:56.826Z,0
2017-01-29T20:34:07.039Z,0
2017-01-29T20:35:16.320Z,0
2017-01-29T20:36:26.063Z,0
2017-01-29T20:37:35.784Z,0
2017-01-29T20:38:45.074Z,0
2017-01-29T20:39:54.857Z,0
2017-01-29T20:41:05.011Z,0
2017-01-29T20:42:14.304Z,0
2017-01-29T20:43:24.029Z,0
2017-01-29T20:44:34.194Z,0
2017-01-29T20:45:44.848Z,0
2017-01-29T20:46:54.600Z,0
2017-01-29T20:48:04.346Z,0
2017-01-29T20:49:14.066Z,0
2017-01-29T20:50:23.790Z,0
2017-01-29T20:51:33.560Z,0
2017-01-29T20:52:42.846Z,0
2017-01-29T20:53:52.571Z,0
2017-01-29T20:55:02.293Z,0
2017-01-29T20:56:12.017Z,0
2017-01-29T20:57:21.781Z,0
2017-01-29T20:58:31.499Z,0
2017-01-29T20:59:40.788Z,0
2017-01-29T21:00:50.955Z,0
2017-01-29T21:02:00.251Z,0
2017-01-29T21:03:10.025Z,0
2017-01-29T21:04:20.177Z,0
2017-01-29T21:05:29.893Z,0
2017-01-29T21:06:40.052Z,0
2017-01-29T21:07:49.341Z,0
2017-01-29T21:08:59.557Z,0
2017-01-29T21:10:09.752Z,0
2017-01-29T21:11:19.472Z,0
2017-01-29T21:12:29.200Z,0
2017-01-29T21:13:38.927Z,0
2017-01-29T21:14:48.264Z,0
2017-01-29T21:15:57.551Z,0
2017-01-29T21:17:07.282Z,0
2017-01-29T21:18:17.004Z,0
2017-01-29T21:19:26.723Z,0
2017-01-29T21:20:36.502Z,0
2017-01-29T21:21:45.788Z,0
2017-01-29T21:22:56.383Z,0
2017-01-29T21:24:05.669Z,0
2017-01-29T21:25:16.261Z,0
2017-01-29T21:26:26.026Z,0
2017-01-29T21:27:36.189Z,0
2017-01-29T21:28:45.909Z,0
2017-01-29T21:29:55.630Z,0
2017-01-29T21:31:05.792Z,0
2017-01-29T21:32:16.008Z,0
2017-01-29T21:33:25.293Z,0
2017-01-29T21:34:34.596Z,0
2017-01-29T21:35:43.881Z,0
2017-01-29T21:36:53.165Z,0
2017-01-29T21:38:03.379Z,0
2017-01-29T21:39:13.095Z,0
2017-01-29T21:40:23.688Z,0
2017-01-29T21:41:34.282Z,0
2017-01-29T21:42:43.566Z,0
2017-01-29T21:43:53.388Z,0
2017-01-29T21:45:02.661Z,0
2017-01-29T21:46:12.382Z,0
2017-01-29T21:47:22.548Z,0
2017-01-29T21:48:32.710Z,0
2017-01-29T21:49:42.475Z,0
2017-01-29T21:50:52.636Z,0
2017-01-29T21:52:02.354Z,0
2017-01-29T21:53:11.645Z,0
2017-01-29T21:54:21.376Z,0
2017-01-29T21:55:31.578Z,0
2017-01-29T21:56:40.874Z,0
2017-01-29T21:57:50.589Z,0
2017-01-29T21:58:59.877Z,0
2017-01-29T22:00:10.065Z,0
2017-01-29T22:01:20.328Z,0
2017-01-29T22:02:29.615Z,0
2017-01-29T22:03:39.774Z,0
2017-01-29T22:04:49.057Z,0
2017-01-29T22:05:59.227Z,0
2017-01-29T22:07:09.004Z,0
2017-01-29T22:08:19.162Z,0
2017-01-29T22:09:28.914Z,0
2017-01-29T22:10:39.069Z,0
2017-01-29T22:11:49.224Z,0
2017-01-29T22:12:58.571Z,0
2017-01-29T22:14:09.167Z,0
2017-01-29T22:15:18.445Z,0
2017-01-29T22:16:28.622Z,0
2017-01-29T22:17:38.784Z,0
2017-01-29T22:18:48.122Z,0
2017-01-29T22:19:57.846Z,0
2017-01-29T22:21:07.563Z,0
2017-01-29T22:22:17.284Z,0
2017-01-29T22:23:27.438Z,0
2017-01-29T22:24:37.644Z,0
2017-01-29T22:25:47.811Z,0
2017-01-29T22:26:57.533Z,0
2017-01-29T22:28:07.698Z,0
2017-01-29T22:29:16.979Z,0
2017-01-29T22:30:27.194Z,0
2017-01-29T22:31:37.787Z,0
2017-01-29T22:32:47.552Z,0
2017-01-29T22:33:56.838Z,0
2017-01-29T22:35:06.114Z,0
2017-01-29T22:36:16.334Z,0
2017-01-29T22:37:26.492Z,0
2017-01-29T22:38:37.089Z,0
2017-01-29T22:39:46.810Z,0
2017-01-29T22:40:56.533Z,0
2017-01-29T22:42:06.747Z,0
2017-01-29T22:43:16.034Z,0
2017-01-29T22:44:26.200Z,0
2017-01-29T22:45:35.916Z,0
2017-01-29T22:46:45.638Z,0
2017-01-29T22:47:55.872Z,0
2017-01-29T22:49:06.469Z,0
2017-01-29T22:50:16.627Z,0
2017-01-29T22:51:26.347Z,0
2017-01-29T22:52:36.059Z,0
2017-01-29T22:53:46.267Z,0
2017-01-29T22:54:55.995Z,0
2017-01-29T22:56:05.712Z,0
2017-01-29T22:57:15.442Z,0
2017-01-29T22:58:25.167Z,0
2017-01-29T22:59:34.503Z,0
2017-01-29T23:00:44.668Z,0
2017-01-29T23:01:54.858Z,0
2017-01-29T23:03:05.048Z,0
2017-01-29T23:04:14.765Z,0
2017-01-29T23:05:24.101Z,0
2017-01-29T23:06:34.256Z,0
2017-01-29T23:07:43.536Z,0
2017-01-29T23:08:53.692Z,0
2017-01-29T23:10:03.412Z,0
2017-01-29T23:11:13.189Z,0
2017-01-29T23:12:22.470Z,0
2017-01-29T23:13:32.185Z,0
2017-01-29T23:14:41.904Z,0
2017-01-29T23:15:52.065Z,0
2017-01-29T23:17:02.715Z,0
2017-01-29T23:18:12.434Z,0
2017-01-29T23:19:22.600Z,0
2017-01-29T23:20:32.320Z,0
2017-01-29T23:21:42.480Z,0
2017-01-29T23:22:52.691Z,0
2017-01-29T23:24:03.290Z,0
2017-01-29T23:25:13.464Z,0
2017-01-29T23:26:23.620Z,0
2017-01-29T23:27:33.342Z,0
2017-01-29T23:28:43.123Z,0
2017-01-29T23:29:52.842Z,0
2017-01-29T23:31:02.573Z,0
2017-01-29T23:32:11.862Z,0
2017-01-29T23:33:22.456Z,0
2017-01-29T23:34:32.219Z,0
2017-01-29T23:35:42.378Z,0
2017-01-29T23:36:52.972Z,0
2017-01-29T23:38:03.571Z,0
2017-01-29T23:39:13.728Z,0
2017-01-29T23:40:23.497Z,0
2017-01-29T23:41:33.218Z,0
2017-01-29T23:42:42.504Z,0
2017-01-29T23:43:52.661Z,0
2017-01-29T23:45:02.383Z,0
2017-01-29T23:46:12.155Z,0
2017-01-29T23:47:22.308Z,0
2017-01-29T23:48:32.471Z,0
2017-01-29T23:49:42.196Z,0
2017-01-29T23:50:51.919Z,0
2017-01-29T23:52:02.139Z,0
2017-01-29T23:53:11.859Z,0
2017-01-29T23:54:22.024Z,0
2017-01-29T23:55:32.188Z,0
2017-01-29T23:56:42.790Z,0
2017-01-29T23:57:53.004Z,0
2017-01-29T23:59:02.719Z,0
